Terminal Aerodrome Forecast
Issued by NWS Duluth, MN

Current Version | Previous Version | Text Only | Print | Product List | Glossary On
Versions: 1 2 3 4 5 6 7 8 9 10 11 12 13 14 15 16 17 18 19
000
FTUS43 KDLH 020532
TAFDLH
TAF
KDLH 020532Z 0206/0306 25006KT P6SM SCT080
     FM020800 25004KT P6SM VCSH SCT060 BKN100
      TEMPO 0210/0214 VRB25KT -TSRA SCT030 BKN040CB OVC080
     FM021600 33009KT P6SM VCSH FEW025 BKN080
     FM021900 33012G20KT P6SM SCT035 BKN050
     FM030100 32009KT P6SM SCT120=

USA.gov is the U.S. government's official web portal to all federal, state and local government web resources and services.